Terminal Aerodrome Forecast
Issued by NWS Tampa Bay Area, FL

Home | Current Version | Previous Version | Text Only | Print | Product List | Glossary On
Versions: 1 2 3 4 5 6 7 8 9 10 11 12 13
000
FTUS42 KTBW 252300
TAFSRQ
TAF
KSRQ 252330Z 2600/2624 26006KT P6SM BKN250
     FM260100 VRB04KT P6SM FEW040 SCT150
     FM261200 24004KT P6SM VCTS SCT025CB BKN200
     FM261800 25008KT P6SM SCT045 BKN250=

USA.gov is the U.S. government's official web portal to all federal, state and local government web resources and services.